sensor_id;sensor_type;location;lat;lon;timestamp;temperature;humidity
21563;DHT22;10942;47.894;11.424;2024-01-27T00:02:20;5.30;99.90
21563;DHT22;10942;47.894;11.424;2024-01-27T00:04:45;5.30;99.90
21563;DHT22;10942;47.894;11.424;2024-01-27T00:07:11;5.20;99.90
21563;DHT22;10942;47.894;11.424;2024-01-27T00:09:37;5.20;99.90
21563;DHT22;10942;47.894;11.424;2024-01-27T00:12:03;5.20;99.90
21563;DHT22;10942;47.894;11.424;2024-01-27T00:14:29;5.20;99.90
21563;DHT22;10942;47.894;11.424;2024-01-27T00:16:54;5.20;99.90
21563;DHT22;10942;47.894;11.424;2024-01-27T00:19:20;5.20;99.90
21563;DHT22;10942;47.894;11.424;2024-01-27T00:21:46;5.30;99.90
21563;DHT22;10942;47.894;11.424;2024-01-27T00:24:13;5.30;99.90
21563;DHT22;10942;47.894;11.424;2024-01-27T00:26:39;5.20;99.90
21563;DHT22;10942;47.894;11.424;2024-01-27T00:29:04;5.20;99.90
21563;DHT22;10942;47.894;11.424;2024-01-27T00:31:30;5.20;99.90
21563;DHT22;10942;47.894;11.424;2024-01-27T00:33:56;5.20;99.90
21563;DHT22;10942;47.894;11.424;2024-01-27T00:36:22;5.20;99.90
21563;DHT22;10942;47.894;11.424;2024-01-27T00:38:47;5.20;99.90
21563;DHT22;10942;47.894;11.424;2024-01-27T00:41:17;5.20;99.90
21563;DHT22;10942;47.894;11.424;2024-01-27T00:43:43;5.20;99.90
21563;DHT22;10942;47.894;11.424;2024-01-27T00:46:08;5.20;99.90
21563;DHT22;10942;47.894;11.424;2024-01-27T00:48:34;5.20;99.90
21563;DHT22;10942;47.894;11.424;2024-01-27T00:51:00;5.20;99.90
21563;DHT22;10942;47.894;11.424;2024-01-27T00:53:25;5.20;99.90
21563;DHT22;10942;47.894;11.424;2024-01-27T00:55:51;5.20;99.90
21563;DHT22;10942;47.894;11.424;2024-01-27T00:58:17;5.20;99.90
21563;DHT22;10942;47.894;11.424;2024-01-27T01:00:42;5.20;99.90
21563;DHT22;10942;47.894;11.424;2024-01-27T01:03:08;5.20;99.90
21563;DHT22;10942;47.894;11.424;2024-01-27T01:05:34;5.20;99.90
21563;DHT22;10942;47.894;11.424;2024-01-27T01:07:59;5.20;99.90
21563;DHT22;10942;47.894;11.424;2024-01-27T01:10:25;5.20;99.90
21563;DHT22;10942;47.894;11.424;2024-01-27T01:12:51;5.20;99.90
21563;DHT22;10942;47.894;11.424;2024-01-27T01:15:17;5.20;99.90
21563;DHT22;10942;47.894;11.424;2024-01-27T01:17:43;5.20;99.90
21563;DHT22;10942;47.894;11.424;2024-01-27T01:20:09;5.20;99.90
21563;DHT22;10942;47.894;11.424;2024-01-27T01:22:35;5.20;99.90
21563;DHT22;10942;47.894;11.424;2024-01-27T01:25:01;5.20;99.90
21563;DHT22;10942;47.894;11.424;2024-01-27T01:27:26;5.10;99.90
21563;DHT22;10942;47.894;11.424;2024-01-27T01:29:52;5.10;99.90
21563;DHT22;10942;47.894;11.424;2024-01-27T01:32:18;5.00;99.90
21563;DHT22;10942;47.894;11.424;2024-01-27T01:34:46;5.00;99.90
21563;DHT22;10942;47.894;11.424;2024-01-27T01:37:11;5.00;99.90
21563;DHT22;10942;47.894;11.424;2024-01-27T01:39:39;5.10;99.90
21563;DHT22;10942;47.894;11.424;2024-01-27T01:42:04;5.10;99.90
21563;DHT22;10942;47.894;11.424;2024-01-27T01:44:30;5.10;99.90
21563;DHT22;10942;47.894;11.424;2024-01-27T01:46:59;5.10;99.90
21563;DHT22;10942;47.894;11.424;2024-01-27T01:49:25;5.10;99.90
21563;DHT22;10942;47.894;11.424;2024-01-27T01:51:51;5.10;99.90
21563;DHT22;10942;47.894;11.424;2024-01-27T01:54:16;5.10;99.90
21563;DHT22;10942;47.894;11.424;2024-01-27T01:56:42;5.10;99.90
21563;DHT22;10942;47.894;11.424;2024-01-27T01:59:08;5.00;99.90
21563;DHT22;10942;47.894;11.424;2024-01-27T02:01:34;5.10;99.90
21563;DHT22;10942;47.894;11.424;2024-01-27T02:04:00;4.90;99.90
21563;DHT22;10942;47.894;11.424;2024-01-27T02:06:25;5.00;99.90
21563;DHT22;10942;47.894;11.424;2024-01-27T02:11:17;5.00;99.90
21563;DHT22;10942;47.894;11.424;2024-01-27T02:13:43;4.90;99.90
21563;DHT22;10942;47.894;11.424;2024-01-27T02:16:09;4.90;99.90
21563;DHT22;10942;47.894;11.424;2024-01-27T02:18:35;4.90;99.90
21563;DHT22;10942;47.894;11.424;2024-01-27T02:21:00;4.90;99.90
21563;DHT22;10942;47.894;11.424;2024-01-27T02:23:26;4.90;99.90
21563;DHT22;10942;47.894;11.424;2024-01-27T02:25:52;4.90;99.90
21563;DHT22;10942;47.894;11.424;2024-01-27T02:28:17;4.90;99.90
21563;DHT22;10942;47.894;11.424;2024-01-27T02:30:43;4.90;99.90
21563;DHT22;10942;47.894;11.424;2024-01-27T02:33:09;4.90;99.90
21563;DHT22;10942;47.894;11.424;2024-01-27T02:35:35;4.90;99.90
21563;DHT22;10942;47.894;11.424;2024-01-27T02:38:00;4.90;99.90
21563;DHT22;10942;47.894;11.424;2024-01-27T02:40:26;4.90;99.90
21563;DHT22;10942;47.894;11.424;2024-01-27T02:42:52;4.90;99.90
21563;DHT22;10942;47.894;11.424;2024-01-27T02:45:18;4.90;99.90
21563;DHT22;10942;47.894;11.424;2024-01-27T02:47:43;4.90;99.90
21563;DHT22;10942;47.894;11.424;2024-01-27T02:50:09;4.90;99.90
21563;DHT22;10942;47.894;11.424;2024-01-27T02:52:35;4.90;99.90
21563;DHT22;10942;47.894;11.424;2024-01-27T02:55:01;4.90;99.90
21563;DHT22;10942;47.894;11.424;2024-01-27T02:57:27;4.80;99.90
21563;DHT22;10942;47.894;11.424;2024-01-27T02:59:52;4.80;99.90
21563;DHT22;10942;47.894;11.424;2024-01-27T03:02:18;4.80;99.90
21563;DHT22;10942;47.894;11.424;2024-01-27T03:04:44;4.80;99.90
21563;DHT22;10942;47.894;11.424;2024-01-27T03:07:09;4.70;99.90
21563;DHT22;10942;47.894;11.424;2024-01-27T03:09:35;4.60;99.90
21563;DHT22;10942;47.894;11.424;2024-01-27T03:12:02;4.50;99.90
21563;DHT22;10942;47.894;11.424;2024-01-27T03:14:27;4.50;99.90
21563;DHT22;10942;47.894;11.424;2024-01-27T03:16:54;4.50;99.90
21563;DHT22;10942;47.894;11.424;2024-01-27T03:19:20;4.40;99.90
21563;DHT22;10942;47.894;11.424;2024-01-27T03:21:46;4.50;99.90
21563;DHT22;10942;47.894;11.424;2024-01-27T03:24:11;4.50;99.90
21563;DHT22;10942;47.894;11.424;2024-01-27T03:26:37;4.50;99.90
21563;DHT22;10942;47.894;11.424;2024-01-27T03:29:03;4.50;99.90
21563;DHT22;10942;47.894;11.424;2024-01-27T03:31:32;4.50;99.90
21563;DHT22;10942;47.894;11.424;2024-01-27T03:33:59;4.30;99.90
21563;DHT22;10942;47.894;11.424;2024-01-27T03:38:52;4.30;99.90
21563;DHT22;10942;47.894;11.424;2024-01-27T03:41:18;4.30;99.90
21563;DHT22;10942;47.894;11.424;2024-01-27T03:43:43;4.20;99.90
21563;DHT22;10942;47.894;11.424;2024-01-27T03:46:09;4.20;99.90
21563;DHT22;10942;47.894;11.424;2024-01-27T03:48:35;4.20;99.90
21563;DHT22;10942;47.894;11.424;2024-01-27T03:51:01;4.20;99.90
21563;DHT22;10942;47.894;11.424;2024-01-27T03:53:27;4.20;99.90
21563;DHT22;10942;47.894;11.424;2024-01-27T03:55:53;4.20;99.90
21563;DHT22;10942;47.894;11.424;2024-01-27T03:58:19;4.20;99.90
21563;DHT22;10942;47.894;11.424;2024-01-27T04:00:45;4.10;99.90
21563;DHT22;10942;47.894;11.424;2024-01-27T04:03:11;4.10;99.90
21563;DHT22;10942;47.894;11.424;2024-01-27T04:05:36;4.20;99.90
21563;DHT22;10942;47.894;11.424;2024-01-27T04:08:04;4.20;99.90
21563;DHT22;10942;47.894;11.424;2024-01-27T04:10:30;4.20;99.90
21563;DHT22;10942;47.894;11.424;2024-01-27T04:12:55;4.20;99.90
21563;DHT22;10942;47.894;11.424;2024-01-27T04:15:21;4.20;99.90
21563;DHT22;10942;47.894;11.424;2024-01-27T04:17:47;4.20;99.90
21563;DHT22;10942;47.894;11.424;2024-01-27T04:22:38;4.00;99.90
21563;DHT22;10942;47.894;11.424;2024-01-27T04:25:05;4.00;99.90
21563;DHT22;10942;47.894;11.424;2024-01-27T04:27:31;4.00;99.90
21563;DHT22;10942;47.894;11.424;2024-01-27T07:50:08;3.80;99.90
21563;DHT22;10942;47.894;11.424;2024-01-27T07:52:35;3.60;99.90
21563;DHT22;10942;47.894;11.424;2024-01-27T07:55:01;3.60;99.90
21563;DHT22;10942;47.894;11.424;2024-01-27T07:57:27;3.80;99.90
21563;DHT22;10942;47.894;11.424;2024-01-27T07:59:53;4.00;99.90
21563;DHT22;10942;47.894;11.424;2024-01-27T08:02:19;4.10;99.90
21563;DHT22;10942;47.894;11.424;2024-01-27T08:04:44;4.40;99.90
21563;DHT22;10942;47.894;11.424;2024-01-27T08:07:10;4.50;99.90
21563;DHT22;10942;47.894;11.424;2024-01-27T08:12:03;4.80;99.90
21563;DHT22;10942;47.894;11.424;2024-01-27T08:14:29;4.90;99.90
21563;DHT22;10942;47.894;11.424;2024-01-27T08:24:21;6.10;99.90
21563;DHT22;10942;47.894;11.424;2024-01-27T08:26:49;6.20;99.90
21563;DHT22;10942;47.894;11.424;2024-01-27T08:29:15;6.00;99.90
21563;DHT22;10942;47.894;11.424;2024-01-27T08:31:41;5.80;99.90
21563;DHT22;10942;47.894;11.424;2024-01-27T08:34:07;5.70;99.90
21563;DHT22;10942;47.894;11.424;2024-01-27T08:36:33;5.80;99.90
21563;DHT22;10942;47.894;11.424;2024-01-27T08:39:00;6.10;99.90
21563;DHT22;10942;47.894;11.424;2024-01-27T08:41:25;6.10;99.90
21563;DHT22;10942;47.894;11.424;2024-01-27T08:43:51;5.90;99.90
21563;DHT22;10942;47.894;11.424;2024-01-27T08:46:17;5.60;99.90
21563;DHT22;10942;47.894;11.424;2024-01-27T08:48:45;5.50;99.90
21563;DHT22;10942;47.894;11.424;2024-01-27T08:51:10;5.60;99.90
21563;DHT22;10942;47.894;11.424;2024-01-27T08:53:38;5.60;99.90
21563;DHT22;10942;47.894;11.424;2024-01-27T08:56:04;5.90;99.90
21563;DHT22;10942;47.894;11.424;2024-01-27T08:58:31;5.80;99.90
21563;DHT22;10942;47.894;11.424;2024-01-27T09:00:56;5.70;99.90
21563;DHT22;10942;47.894;11.424;2024-01-27T09:03:22;5.90;99.90
21563;DHT22;10942;47.894;11.424;2024-01-27T09:05:48;6.10;99.90
21563;DHT22;10942;47.894;11.424;2024-01-27T09:08:14;6.30;99.90
21563;DHT22;10942;47.894;11.424;2024-01-27T09:10:40;6.30;99.90
21563;DHT22;10942;47.894;11.424;2024-01-27T09:13:06;6.40;99.90
21563;DHT22;10942;47.894;11.424;2024-01-27T09:15:31;6.70;99.90
21563;DHT22;10942;47.894;11.424;2024-01-27T09:17:58;6.80;99.90
21563;DHT22;10942;47.894;11.424;2024-01-27T09:20:24;7.00;99.90
21563;DHT22;10942;47.894;11.424;2024-01-27T09:22:50;7.20;99.90
21563;DHT22;10942;47.894;11.424;2024-01-27T09:25:16;7.40;99.90
21563;DHT22;10942;47.894;11.424;2024-01-27T09:35:01;7.40;99.90
21563;DHT22;10942;47.894;11.424;2024-01-27T09:37:27;8.10;99.90
21563;DHT22;10942;47.894;11.424;2024-01-27T09:39:52;8.50;99.90
21563;DHT22;10942;47.894;11.424;2024-01-27T09:44:48;9.00;99.90
21563;DHT22;10942;47.894;11.424;2024-01-27T09:47:15;9.60;99.90
21563;DHT22;10942;47.894;11.424;2024-01-27T09:49:42;9.20;99.90
21563;DHT22;10942;47.894;11.424;2024-01-27T09:59:29;9.70;99.90
21563;DHT22;10942;47.894;11.424;2024-01-27T10:01:56;10.30;99.90
21563;DHT22;10942;47.894;11.424;2024-01-27T10:04:26;10.30;99.90
21563;DHT22;10942;47.894;11.424;2024-01-27T10:06:52;10.00;99.90
21563;DHT22;10942;47.894;11.424;2024-01-27T10:09:18;10.10;99.90
21563;DHT22;10942;47.894;11.424;2024-01-27T10:11:47;10.10;99.90
21563;DHT22;10942;47.894;11.424;2024-01-27T10:14:13;10.20;99.90
21563;DHT22;10942;47.894;11.424;2024-01-27T10:16:45;10.50;99.90
21563;DHT22;10942;47.894;11.424;2024-01-27T10:19:16;10.90;99.90
21563;DHT22;10942;47.894;11.424;2024-01-27T10:21:45;11.10;99.90
21563;DHT22;10942;47.894;11.424;2024-01-27T10:24:11;11.30;99.90
21563;DHT22;10942;47.894;11.424;2024-01-27T10:26:38;11.10;99.90
21563;DHT22;10942;47.894;11.424;2024-01-27T10:31:31;11.70;99.90
21563;DHT22;10942;47.894;11.424;2024-01-27T10:33:57;11.80;99.90
21563;DHT22;10942;47.894;11.424;2024-01-27T10:41:24;12.40;99.90
21563;DHT22;10942;47.894;11.424;2024-01-27T11:01:13;12.70;99.90
21563;DHT22;10942;47.894;11.424;2024-01-27T11:06:07;13.20;99.90
21563;DHT22;10942;47.894;11.424;2024-01-27T11:08:36;13.80;99.90
21563;DHT22;10942;47.894;11.424;2024-01-27T11:11:03;13.80;99.90
21563;DHT22;10942;47.894;11.424;2024-01-27T11:13:30;13.50;99.90
21563;DHT22;10942;47.894;11.424;2024-01-27T11:15:57;13.00;99.90
21563;DHT22;10942;47.894;11.424;2024-01-27T11:18:26;13.00;99.90
21563;DHT22;10942;47.894;11.424;2024-01-27T11:20:55;13.00;99.90
21563;DHT22;10942;47.894;11.424;2024-01-27T11:23:31;12.70;99.90
21563;DHT22;10942;47.894;11.424;2024-01-27T11:26:07;12.10;99.90
21563;DHT22;10942;47.894;11.424;2024-01-27T11:28:34;11.70;99.90
21563;DHT22;10942;47.894;11.424;2024-01-27T11:31:08;11.30;99.90
21563;DHT22;10942;47.894;11.424;2024-01-27T11:33:39;10.70;99.90
21563;DHT22;10942;47.894;11.424;2024-01-27T12:03:14;8.90;99.90
21563;DHT22;10942;47.894;11.424;2024-01-27T12:05:40;8.80;99.90
21563;DHT22;10942;47.894;11.424;2024-01-27T12:08:08;8.50;99.90
21563;DHT22;10942;47.894;11.424;2024-01-27T12:10:33;8.50;99.90
21563;DHT22;10942;47.894;11.424;2024-01-27T12:13:00;8.50;99.90
21563;DHT22;10942;47.894;11.424;2024-01-27T12:15:25;8.50;99.90
21563;DHT22;10942;47.894;11.424;2024-01-27T12:17:52;8.30;99.90
21563;DHT22;10942;47.894;11.424;2024-01-27T12:20:18;8.30;99.90
21563;DHT22;10942;47.894;11.424;2024-01-27T12:22:44;8.30;99.90
21563;DHT22;10942;47.894;11.424;2024-01-27T12:25:11;8.00;99.90
21563;DHT22;10942;47.894;11.424;2024-01-27T12:30:07;8.10;99.90
21563;DHT22;10942;47.894;11.424;2024-01-27T12:32:33;8.10;99.90
21563;DHT22;10942;47.894;11.424;2024-01-27T12:35:05;8.10;99.90
21563;DHT22;10942;47.894;11.424;2024-01-27T12:37:30;7.80;99.90
21563;DHT22;10942;47.894;11.424;2024-01-27T18:29:13;2.30;99.90
21563;DHT22;10942;47.894;11.424;2024-01-27T18:31:39;2.20;99.90
21563;DHT22;10942;47.894;11.424;2024-01-27T18:34:10;2.10;99.90
21563;DHT22;10942;47.894;11.424;2024-01-27T18:36:36;2.10;99.90
21563;DHT22;10942;47.894;11.424;2024-01-27T18:39:02;1.90;99.90
21563;DHT22;10942;47.894;11.424;2024-01-27T18:41:27;1.90;99.90
21563;DHT22;10942;47.894;11.424;2024-01-27T18:43:53;1.80;99.90
21563;DHT22;10942;47.894;11.424;2024-01-27T18:46:19;1.80;99.90
21563;DHT22;10942;47.894;11.424;2024-01-27T18:48:45;1.80;99.90
21563;DHT22;10942;47.894;11.424;2024-01-27T18:51:15;1.80;99.90
21563;DHT22;10942;47.894;11.424;2024-01-27T18:53:41;1.80;99.90
21563;DHT22;10942;47.894;11.424;2024-01-27T18:56:08;1.80;99.90
21563;DHT22;10942;47.894;11.424;2024-01-27T18:58:35;1.80;99.90
21563;DHT22;10942;47.894;11.424;2024-01-27T19:01:01;1.80;99.90
21563;DHT22;10942;47.894;11.424;2024-01-27T19:03:27;1.80;99.90
21563;DHT22;10942;47.894;11.424;2024-01-27T19:05:53;1.80;99.90
21563;DHT22;10942;47.894;11.424;2024-01-27T19:08:19;1.70;99.90
21563;DHT22;10942;47.894;11.424;2024-01-27T19:10:45;1.70;99.90
21563;DHT22;10942;47.894;11.424;2024-01-27T19:13:11;1.70;99.90
21563;DHT22;10942;47.894;11.424;2024-01-27T19:15:40;1.60;99.90
21563;DHT22;10942;47.894;11.424;2024-01-27T19:20:35;1.60;99.90
21563;DHT22;10942;47.894;11.424;2024-01-27T19:23:00;1.50;99.90
21563;DHT22;10942;47.894;11.424;2024-01-27T22:43:18;-0.40;99.90
21563;DHT22;10942;47.894;11.424;2024-01-27T22:45:44;-0.50;99.90
21563;DHT22;10942;47.894;11.424;2024-01-27T22:48:09;-0.60;99.90
21563;DHT22;10942;47.894;11.424;2024-01-27T22:50:36;-0.80;99.90
21563;DHT22;10942;47.894;11.424;2024-01-27T22:53:02;-0.80;99.90
21563;DHT22;10942;47.894;11.424;2024-01-27T22:55:28;-0.80;99.90
21563;DHT22;10942;47.894;11.424;2024-01-27T22:57:54;-0.80;99.90
21563;DHT22;10942;47.894;11.424;2024-01-27T23:00:23;-0.90;99.90
21563;DHT22;10942;47.894;11.424;2024-01-27T23:03:03;-0.80;99.90
21563;DHT22;10942;47.894;11.424;2024-01-27T23:05:29;-0.80;99.90
21563;DHT22;10942;47.894;11.424;2024-01-27T23:07:55;-0.80;99.90
21563;DHT22;10942;47.894;11.424;2024-01-27T23:10:21;-0.80;99.90
21563;DHT22;10942;47.894;11.424;2024-01-27T23:12:47;-0.80;99.90
21563;DHT22;10942;47.894;11.424;2024-01-27T23:15:14;-0.80;99.90
21563;DHT22;10942;47.894;11.424;2024-01-27T23:17:39;-0.80;99.90
21563;DHT22;10942;47.894;11.424;2024-01-27T23:20:06;-0.80;99.90
21563;DHT22;10942;47.894;11.424;2024-01-27T23:22:33;-0.80;99.90
21563;DHT22;10942;47.894;11.424;2024-01-27T23:24:59;-0.70;99.90
21563;DHT22;10942;47.894;11.424;2024-01-27T23:27:26;-0.70;99.90
21563;DHT22;10942;47.894;11.424;2024-01-27T23:29:52;-0.70;99.90
21563;DHT22;10942;47.894;11.424;2024-01-27T23:32:17;-0.80;99.90
21563;DHT22;10942;47.894;11.424;2024-01-27T23:34:43;-0.80;99.90
21563;DHT22;10942;47.894;11.424;2024-01-27T23:37:09;-0.80;99.90
21563;DHT22;10942;47.894;11.424;2024-01-27T23:39:35;-0.80;99.90
21563;DHT22;10942;47.894;11.424;2024-01-27T23:42:02;-0.90;99.90
21563;DHT22;10942;47.894;11.424;2024-01-27T23:44:27;-0.90;99.90
21563;DHT22;10942;47.894;11.424;2024-01-27T23:46:53;-0.90;99.90
21563;DHT22;10942;47.894;11.424;2024-01-27T23:49:19;-0.90;99.90
21563;DHT22;10942;47.894;11.424;2024-01-27T23:51:44;-1.00;99.90
21563;DHT22;10942;47.894;11.424;2024-01-27T23:56:40;-1.10;99.90
21563;DHT22;10942;47.894;11.424;2024-01-27T23:59:06;-1.20;99.90
